National Weather Service Raw Text Product

Displaying AFOS PIL: TAFDSM Received: 2018-03-08 11:20 UTC


746 
FTUS43 KDMX 081120
TAFDSM
TAF
KDSM 081120Z 0812/0912 31011KT P6SM FEW120
     FM090100 VRB03KT P6SM BKN110=